createdAt,value
2018-09-15T00:01:52.105Z,16.34
2018-09-15T00:04:22.267Z,16.44
2018-09-15T00:06:51.575Z,16.41
2018-09-15T00:09:20.780Z,16.44
2018-09-15T00:11:50.001Z,16.46
2018-09-15T00:14:19.199Z,16.52
2018-09-15T00:16:48.444Z,16.51
2018-09-15T00:19:17.673Z,16.41
2018-09-15T00:21:46.941Z,16.40
2018-09-15T00:24:16.175Z,16.46
2018-09-15T00:26:45.570Z,16.39
2018-09-15T00:29:15.376Z,16.34
2018-09-15T00:31:44.589Z,16.30
2018-09-15T00:34:14.359Z,16.35
2018-09-15T00:36:43.615Z,16.34
2018-09-15T00:39:13.210Z,16.32
2018-09-15T00:41:42.500Z,16.28
2018-09-15T00:44:11.703Z,16.26
2018-09-15T00:46:41.003Z,16.24
2018-09-15T00:49:10.214Z,16.23
2018-09-15T00:51:39.524Z,16.19
2018-09-15T00:54:08.674Z,16.11
2018-09-15T00:56:37.898Z,16.12
2018-09-15T00:59:07.179Z,16.06
2018-09-15T01:01:36.383Z,16.07
2018-09-15T01:04:08.627Z,16.11
2018-09-15T01:06:37.823Z,16.08
2018-09-15T01:09:08.478Z,16.04
2018-09-15T01:11:37.794Z,15.99
2018-09-15T01:14:07.250Z,15.91
2018-09-15T01:16:36.395Z,15.87
2018-09-15T01:19:05.693Z,15.79
2018-09-15T01:21:34.891Z,15.81
2018-09-15T01:24:04.107Z,15.82
2018-09-15T01:26:33.322Z,15.86
2018-09-15T01:29:02.558Z,15.88
2018-09-15T01:31:31.967Z,15.91
2018-09-15T01:34:01.195Z,15.94
2018-09-15T01:36:30.375Z,15.96
2018-09-15T01:38:59.572Z,15.96
2018-09-15T01:41:28.958Z,15.98
2018-09-15T01:43:58.193Z,15.96
2018-09-15T01:46:27.420Z,15.90
2018-09-15T01:48:56.686Z,15.88
2018-09-15T01:51:25.867Z,15.84
2018-09-15T01:53:55.062Z,15.77
2018-09-15T01:56:24.414Z,15.79
2018-09-15T01:58:53.684Z,15.77
2018-09-15T02:01:22.913Z,15.73
2018-09-15T02:03:52.134Z,15.74
2018-09-15T02:06:21.389Z,15.76
2018-09-15T02:08:50.597Z,15.74
2018-09-15T02:11:19.824Z,15.68
2018-09-15T02:13:49.068Z,15.68
2018-09-15T02:16:18.278Z,15.69
2018-09-15T02:18:47.498Z,15.73
2018-09-15T02:21:16.957Z,15.67
2018-09-15T02:23:46.151Z,15.56
2018-09-15T02:26:15.386Z,15.49
2018-09-15T02:28:44.590Z,15.41
2018-09-15T02:31:13.960Z,15.42
2018-09-15T02:33:43.171Z,15.27
2018-09-15T02:36:13.121Z,15.21
2018-09-15T02:38:42.269Z,15.12
2018-09-15T02:41:11.490Z,15.05
2018-09-15T02:43:40.684Z,14.97
2018-09-15T02:46:09.922Z,14.82
2018-09-15T02:48:39.124Z,14.75
2018-09-15T02:51:08.357Z,14.68
2018-09-15T02:53:37.553Z,14.67
2018-09-15T02:56:06.818Z,14.70
2018-09-15T02:58:36.048Z,14.70
2018-09-15T03:01:05.306Z,14.68
2018-09-15T03:03:34.515Z,14.62
2018-09-15T03:06:10.114Z,14.65
2018-09-15T03:08:39.328Z,14.69
2018-09-15T03:11:08.625Z,14.72
2018-09-15T03:13:37.954Z,14.87
2018-09-15T03:16:07.225Z,14.89
2018-09-15T03:18:36.463Z,14.91
2018-09-15T03:21:06.065Z,14.92
2018-09-15T03:23:35.292Z,14.97
2018-09-15T03:26:04.564Z,14.93
2018-09-15T03:28:33.756Z,14.89
2018-09-15T03:31:03.002Z,14.96
2018-09-15T03:33:32.174Z,14.93
2018-09-15T03:36:01.389Z,14.82
2018-09-15T03:38:30.563Z,14.72
2018-09-15T03:40:59.875Z,14.65
2018-09-15T03:43:29.042Z,14.61
2018-09-15T03:45:58.311Z,14.56
2018-09-15T03:48:27.540Z,14.52
2018-09-15T03:50:56.823Z,14.51
2018-09-15T03:53:31.509Z,14.45
2018-09-15T03:56:00.766Z,14.38
2018-09-15T03:58:30.021Z,14.30
2018-09-15T04:00:59.239Z,14.41
2018-09-15T04:03:28.456Z,14.31
2018-09-15T04:05:57.663Z,14.29
2018-09-15T04:08:26.914Z,14.27
2018-09-15T04:10:56.208Z,14.12
2018-09-15T04:13:25.449Z,14.10
2018-09-15T04:15:54.704Z,14.05
2018-09-15T04:18:23.971Z,13.96
2018-09-15T04:20:53.246Z,13.93
2018-09-15T04:23:22.490Z,13.81
2018-09-15T04:25:51.718Z,13.73
2018-09-15T04:28:21.000Z,13.71
2018-09-15T04:30:50.270Z,13.73
2018-09-15T04:33:19.535Z,13.77
2018-09-15T04:35:48.763Z,13.64
2018-09-15T04:38:17.987Z,13.67
2018-09-15T04:40:47.213Z,13.57
2018-09-15T04:43:16.424Z,13.60
2018-09-15T04:45:45.635Z,13.57
2018-09-15T04:48:14.863Z,13.49
2018-09-15T04:50:44.084Z,13.62
2018-09-15T04:53:13.289Z,13.66
2018-09-15T04:55:42.500Z,13.55
2018-09-15T04:58:11.735Z,13.47
2018-09-15T05:00:41.083Z,13.55
2018-09-15T05:03:10.335Z,13.49
2018-09-15T05:05:39.611Z,13.53
2018-09-15T05:08:09.136Z,13.51
2018-09-15T05:10:38.355Z,13.54
2018-09-15T05:13:07.735Z,13.57
2018-09-15T05:15:37.214Z,13.61
2018-09-15T05:18:06.552Z,13.69
2018-09-15T05:20:35.745Z,13.72
2018-09-15T05:23:05.035Z,13.71
2018-09-15T05:25:34.324Z,13.76
2018-09-15T05:28:03.559Z,13.90
2018-09-15T05:30:32.775Z,14.03
2018-09-15T05:33:02.041Z,14.21
2018-09-15T05:35:31.276Z,14.33
2018-09-15T05:38:00.478Z,14.47
2018-09-15T05:40:29.754Z,14.55
2018-09-15T05:42:58.996Z,14.65
2018-09-15T05:45:29.731Z,14.63
2018-09-15T05:47:58.957Z,14.70
2018-09-15T05:50:28.198Z,14.88
2018-09-15T05:52:57.464Z,14.86
2018-09-15T05:55:26.783Z,15.10
2018-09-15T05:57:56.012Z,15.19
2018-09-15T06:00:25.301Z,15.40
2018-09-15T06:02:54.490Z,15.28
2018-09-15T06:05:23.754Z,15.39
2018-09-15T06:07:52.947Z,15.48
2018-09-15T06:10:22.433Z,15.85
2018-09-15T06:12:51.680Z,16.90
2018-09-15T06:15:20.983Z,18.44
2018-09-15T06:17:50.183Z,19.59
2018-09-15T06:20:19.542Z,20.68
2018-09-15T06:22:48.715Z,21.13
2018-09-15T06:25:18.301Z,20.57
2018-09-15T06:27:47.800Z,20.46
2018-09-15T06:30:17.276Z,19.91
2018-09-15T06:32:46.508Z,18.29
2018-09-15T06:35:16.182Z,17.69
2018-09-15T06:37:45.559Z,17.31
2018-09-15T06:40:14.907Z,17.77
2018-09-15T06:42:44.074Z,17.73
2018-09-15T06:45:13.336Z,17.42
2018-09-15T06:47:42.519Z,17.84
2018-09-15T06:50:12.936Z,17.19
2018-09-15T06:52:42.119Z,16.75
2018-09-15T06:55:12.140Z,17.48
2018-09-15T06:57:41.364Z,18.98
2018-09-15T07:00:11.870Z,20.05
2018-09-15T07:02:41.075Z,21.40
2018-09-15T07:05:11.860Z,21.44
2018-09-15T07:07:41.087Z,22.29
2018-09-15T07:10:11.340Z,21.44
2018-09-15T07:12:40.580Z,23.58
2018-09-15T07:15:10.869Z,23.85
2018-09-15T07:17:40.082Z,23.32
2018-09-15T07:20:10.673Z,23.88
2018-09-15T07:22:39.835Z,23.44
2018-09-15T07:25:10.063Z,23.78
2018-09-15T07:27:39.245Z,24.65
2018-09-15T07:30:09.561Z,24.94
2018-09-15T07:32:38.824Z,25.37
2018-09-15T07:35:09.030Z,24.59
2018-09-15T07:37:39.046Z,23.29
2018-09-15T07:40:09.604Z,22.99
2018-09-15T07:42:38.851Z,23.92
2018-09-15T07:45:09.400Z,25.01
2018-09-15T07:47:38.587Z,22.83
2018-09-15T07:50:08.089Z,22.94
2018-09-15T07:52:37.265Z,23.80
2018-09-15T07:55:06.508Z,24.62
2018-09-15T07:57:35.819Z,22.26
2018-09-15T08:00:05.024Z,20.70
2018-09-15T08:02:34.260Z,22.72
2018-09-15T08:05:03.547Z,22.59
2018-09-15T08:07:32.812Z,21.74
2018-09-15T08:10:02.040Z,21.33
2018-09-15T08:12:31.241Z,22.75
2018-09-15T08:15:00.456Z,23.70
2018-09-15T08:17:29.720Z,24.28
2018-09-15T08:19:58.948Z,24.55
2018-09-15T08:22:28.264Z,24.93
2018-09-15T08:24:57.478Z,25.14
2018-09-15T08:27:26.725Z,25.20
2018-09-15T08:29:55.975Z,24.48
2018-09-15T08:32:25.207Z,24.55
2018-09-15T08:34:54.448Z,24.64
2018-09-15T08:37:23.754Z,23.97
2018-09-15T08:39:53.033Z,23.53
2018-09-15T08:42:22.293Z,24.19
2018-09-15T08:44:51.778Z,22.57
2018-09-15T08:47:21.021Z,23.15
2018-09-15T08:49:50.241Z,24.30
2018-09-15T08:52:19.467Z,24.14
2018-09-15T08:54:48.687Z,24.44
2018-09-15T08:57:17.910Z,24.21
2018-09-15T08:59:47.406Z,23.98
2018-09-15T09:02:16.619Z,23.89
2018-09-15T09:04:45.858Z,23.93
2018-09-15T09:07:15.085Z,24.13
2018-09-15T09:09:44.265Z,24.01
2018-09-15T09:12:13.440Z,23.71
2018-09-15T09:14:42.703Z,23.85
2018-09-15T09:17:11.954Z,24.34
2018-09-15T09:19:41.140Z,23.64
2018-09-15T09:22:11.425Z,23.03
2018-09-15T09:24:40.618Z,22.42
2018-09-15T09:27:10.232Z,21.69
2018-09-15T09:29:39.480Z,21.51
2018-09-15T09:32:09.328Z,21.19
2018-09-15T09:34:38.539Z,21.22
2018-09-15T09:37:08.291Z,21.04
2018-09-15T09:39:37.512Z,21.29
2018-09-15T09:42:07.331Z,21.11
2018-09-15T09:44:36.536Z,21.22
2018-09-15T09:47:05.762Z,21.30
2018-09-15T09:49:34.979Z,21.04
2018-09-15T09:52:04.223Z,20.49
2018-09-15T09:54:33.437Z,20.38
2018-09-15T09:57:02.724Z,20.42
2018-09-15T09:59:31.946Z,20.78
2018-09-15T10:02:34.219Z,20.85
2018-09-15T10:05:04.652Z,21.20
2018-09-15T10:07:35.167Z,21.26
2018-09-15T10:10:06.121Z,21.45
2018-09-15T10:12:36.662Z,21.62
2018-09-15T10:15:06.788Z,21.40
2018-09-15T10:17:37.160Z,21.46
2018-09-15T10:20:06.445Z,21.65
2018-09-15T10:22:35.674Z,21.63
2018-09-15T10:25:04.936Z,21.75
2018-09-15T10:27:34.126Z,21.98
2018-09-15T10:30:03.518Z,21.83
2018-09-15T10:32:32.719Z,22.06
2018-09-15T10:35:02.097Z,22.10
2018-09-15T10:37:31.313Z,22.56
2018-09-15T10:40:00.571Z,22.93
2018-09-15T10:42:29.851Z,23.10
2018-09-15T10:44:59.723Z,23.37
2018-09-15T10:47:28.978Z,23.77
2018-09-15T10:49:58.155Z,23.68
2018-09-15T10:52:27.431Z,24.03
2018-09-15T10:54:56.818Z,24.28
2018-09-15T10:57:26.049Z,24.37
2018-09-15T10:59:55.238Z,24.33
2018-09-15T11:02:24.469Z,24.49
2018-09-15T11:04:53.732Z,24.35
2018-09-15T11:07:22.954Z,24.35
2018-09-15T11:09:52.169Z,23.83
2018-09-15T11:12:21.379Z,23.87
2018-09-15T11:14:50.545Z,24.23
2018-09-15T11:17:19.776Z,24.17
2018-09-15T11:19:49.047Z,24.15
2018-09-15T11:22:18.260Z,23.97
2018-09-15T11:24:47.492Z,24.00
2018-09-15T11:27:16.692Z,23.87
2018-09-15T11:29:45.869Z,23.81
2018-09-15T11:32:15.277Z,23.87
2018-09-15T11:34:44.443Z,24.15
2018-09-15T11:37:13.711Z,24.37
2018-09-15T11:39:42.975Z,24.55
2018-09-15T11:42:12.242Z,24.81
2018-09-15T11:44:41.446Z,24.62
2018-09-15T11:47:10.691Z,24.44
2018-09-15T11:49:39.904Z,24.31
2018-09-15T11:52:09.619Z,23.90
2018-09-15T11:54:38.894Z,23.83
2018-09-15T11:57:08.399Z,23.94
2018-09-15T11:59:37.591Z,23.91
2018-09-15T12:02:07.194Z,23.72
2018-09-15T12:04:36.436Z,23.50
2018-09-15T12:07:05.764Z,23.09
2018-09-15T12:09:34.905Z,23.10
2018-09-15T12:12:04.136Z,23.10
2018-09-15T12:14:33.328Z,22.89
2018-09-15T12:17:02.551Z,22.50
2018-09-15T12:19:31.750Z,22.33
2018-09-15T12:22:01.015Z,22.55
2018-09-15T12:24:30.210Z,22.68
2018-09-15T12:26:59.471Z,22.86
2018-09-15T12:29:28.709Z,22.81
2018-09-15T12:31:57.919Z,22.65
2018-09-15T12:34:27.261Z,22.98
2018-09-15T12:36:57.508Z,22.70
2018-09-15T12:39:28.377Z,22.73
2018-09-15T12:41:57.739Z,22.56
2018-09-15T12:44:27.243Z,22.73
2018-09-15T12:46:56.506Z,22.85
2018-09-15T12:49:25.736Z,22.96
2018-09-15T12:51:55.027Z,22.93
2018-09-15T12:54:24.137Z,23.50
2018-09-15T12:56:53.342Z,24.00
2018-09-15T12:59:22.603Z,23.75
2018-09-15T13:01:51.941Z,23.61
2018-09-15T13:04:21.198Z,23.70
2018-09-15T13:06:50.540Z,24.05
2018-09-15T13:09:19.838Z,23.68
2018-09-15T13:11:49.135Z,23.70
2018-09-15T13:14:18.395Z,23.55
2018-09-15T13:16:47.627Z,23.27
2018-09-15T13:19:16.933Z,23.26
2018-09-15T13:21:46.162Z,23.51
2018-09-15T13:24:15.394Z,23.54
2018-09-15T13:26:44.612Z,23.51
2018-09-15T13:29:13.817Z,23.53
2018-09-15T13:31:43.090Z,23.62
2018-09-15T13:34:12.459Z,23.15
2018-09-15T13:36:41.694Z,23.02
2018-09-15T13:39:12.167Z,22.65
2018-09-15T13:41:41.412Z,22.43
2018-09-15T13:44:10.914Z,22.43
2018-09-15T13:46:40.143Z,22.46
2018-09-15T13:49:09.857Z,22.51
2018-09-15T13:51:39.122Z,22.66
2018-09-15T13:54:09.189Z,22.90
2018-09-15T13:56:38.437Z,23.04
2018-09-15T13:59:08.093Z,23.11
2018-09-15T14:01:37.311Z,23.19
2018-09-15T14:04:06.663Z,23.12
2018-09-15T14:06:35.868Z,22.84
2018-09-15T14:09:07.755Z,22.51
2018-09-15T14:11:37.128Z,22.55
2018-09-15T14:14:06.689Z,22.40
2018-09-15T14:16:36.096Z,22.34
2018-09-15T14:19:05.295Z,22.42
2018-09-15T14:21:34.636Z,22.38
2018-09-15T14:24:03.834Z,22.51
2018-09-15T14:26:33.149Z,22.45
2018-09-15T14:29:02.331Z,22.10
2018-09-15T14:31:31.588Z,22.23
2018-09-15T14:34:00.814Z,22.39
2018-09-15T14:36:30.086Z,22.42
2018-09-15T14:38:59.354Z,22.68
2018-09-15T14:41:28.687Z,22.86
2018-09-15T14:43:57.861Z,22.82
2018-09-15T14:46:27.116Z,23.03
2018-09-15T14:48:56.339Z,23.11
2018-09-15T14:51:25.658Z,23.26
2018-09-15T14:53:54.872Z,23.34
2018-09-15T14:56:24.264Z,23.14
2018-09-15T14:58:53.381Z,22.67
2018-09-15T15:01:22.689Z,22.39
2018-09-15T15:03:51.872Z,22.36
2018-09-15T15:06:21.273Z,22.27
2018-09-15T15:08:50.499Z,22.20
2018-09-15T15:11:19.917Z,22.20
2018-09-15T15:13:49.606Z,22.24
2018-09-15T15:16:18.941Z,22.19
2018-09-15T15:18:48.272Z,22.06
2018-09-15T15:21:17.548Z,21.84
2018-09-15T15:23:46.774Z,21.72
2018-09-15T15:26:16.090Z,21.64
2018-09-15T15:28:45.259Z,21.49
2018-09-15T15:31:14.596Z,21.44
2018-09-15T15:33:43.767Z,21.45
2018-09-15T15:36:13.044Z,21.31
2018-09-15T15:38:42.290Z,21.36
2018-09-15T15:41:11.638Z,21.39
2018-09-15T15:43:40.916Z,21.40
2018-09-15T15:46:10.272Z,21.43
2018-09-15T15:48:39.501Z,21.43
2018-09-15T15:51:09.253Z,21.44
2018-09-15T15:53:38.450Z,21.52
2018-09-15T15:56:07.929Z,21.60
2018-09-15T15:58:37.230Z,21.66
2018-09-15T16:01:06.988Z,21.82
2018-09-15T16:03:36.190Z,21.69
2018-09-15T16:06:05.440Z,21.65
2018-09-15T16:08:34.656Z,21.60
2018-09-15T16:11:03.996Z,21.52
2018-09-15T16:13:33.218Z,21.45
2018-09-15T16:16:02.468Z,21.29
2018-09-15T16:18:31.728Z,21.11
2018-09-15T16:21:01.943Z,21.20
2018-09-15T16:23:31.186Z,21.04
2018-09-15T16:26:00.496Z,21.06
2018-09-15T16:28:29.824Z,21.04
2018-09-15T16:30:59.075Z,21.09
2018-09-15T16:33:28.523Z,21.04
2018-09-15T16:35:57.759Z,21.01
2018-09-15T16:38:27.043Z,20.89
2018-09-15T16:40:56.342Z,20.75
2018-09-15T16:43:25.591Z,20.78
2018-09-15T16:45:54.885Z,20.68
2018-09-15T16:48:24.126Z,20.57
2018-09-15T16:50:53.382Z,20.49
2018-09-15T16:53:22.626Z,20.52
2018-09-15T16:55:51.917Z,20.43
2018-09-15T16:58:21.137Z,20.29
2018-09-15T17:00:50.554Z,20.17
2018-09-15T17:03:22.777Z,20.23
2018-09-15T17:05:52.759Z,20.19
2018-09-15T17:08:22.171Z,20.14
2018-09-15T17:10:51.412Z,20.02
2018-09-15T17:13:21.117Z,19.97
2018-09-15T17:15:50.464Z,19.93
2018-09-15T17:18:19.705Z,19.92
2018-09-15T17:20:48.993Z,19.81
2018-09-15T17:23:18.943Z,19.83
2018-09-15T17:25:48.173Z,19.71
2018-09-15T17:28:17.445Z,19.71
2018-09-15T17:30:46.682Z,19.74
2018-09-15T17:33:15.906Z,19.59
2018-09-15T17:35:45.211Z,19.72
2018-09-15T17:38:14.500Z,19.64
2018-09-15T17:40:43.750Z,19.69
2018-09-15T17:43:13.001Z,19.71
2018-09-15T17:45:42.277Z,19.77
2018-09-15T17:48:11.468Z,19.73
2018-09-15T17:50:41.615Z,19.68
2018-09-15T17:53:11.058Z,19.40
2018-09-15T17:55:40.323Z,19.25
2018-09-15T17:58:09.796Z,19.26
2018-09-15T18:00:39.204Z,18.95
2018-09-15T18:03:08.939Z,19.01
2018-09-15T18:05:38.276Z,18.97
2018-09-15T18:08:07.600Z,18.90
2018-09-15T18:10:37.003Z,18.88
2018-09-15T18:13:06.278Z,18.85
2018-09-15T18:15:35.529Z,18.83
2018-09-15T18:18:05.739Z,18.66
2018-09-15T18:20:35.016Z,18.47
2018-09-15T18:23:04.236Z,18.43
2018-09-15T18:25:33.512Z,18.30
2018-09-15T18:28:02.915Z,18.35
2018-09-15T18:30:32.225Z,18.12
2018-09-15T18:33:01.484Z,18.09
2018-09-15T18:35:30.761Z,18.00
2018-09-15T18:38:00.036Z,17.89
2018-09-15T18:40:29.337Z,17.85
2018-09-15T18:42:58.577Z,17.84
2018-09-15T18:45:27.810Z,17.79
2018-09-15T18:47:57.032Z,17.63
2018-09-15T18:50:26.331Z,17.60
2018-09-15T18:52:55.548Z,17.54
2018-09-15T18:55:24.835Z,17.45
2018-09-15T18:57:54.078Z,17.37
2018-09-15T19:00:23.473Z,17.40
2018-09-15T19:02:52.568Z,17.30
2018-09-15T19:05:22.077Z,17.24
2018-09-15T19:07:51.264Z,17.22
2018-09-15T19:10:20.679Z,17.17
2018-09-15T19:12:49.996Z,17.11
2018-09-15T19:15:19.634Z,17.09
2018-09-15T19:17:48.907Z,17.07
2018-09-15T19:20:18.569Z,16.99
2018-09-15T19:22:47.796Z,17.00
2018-09-15T19:25:18.108Z,17.06
2018-09-15T19:27:47.414Z,17.01
2018-09-15T19:30:18.614Z,16.95
2018-09-15T19:32:48.031Z,16.94
2018-09-15T19:35:18.477Z,16.87
2018-09-15T19:37:47.854Z,16.76
2018-09-15T19:40:18.019Z,16.72
2018-09-15T19:42:47.263Z,16.74
2018-09-15T19:45:17.846Z,16.71
2018-09-15T19:47:47.112Z,16.67
2018-09-15T19:50:17.867Z,16.61
2018-09-15T19:52:48.069Z,16.56
2018-09-15T19:55:17.633Z,16.60
2018-09-15T19:57:46.867Z,16.61
2018-09-15T20:00:17.347Z,16.55
2018-09-15T20:02:46.657Z,16.53
2018-09-15T20:05:16.917Z,16.49
2018-09-15T20:07:46.170Z,16.44
2018-09-15T20:10:16.618Z,16.38
2018-09-15T20:12:45.834Z,16.34
2018-09-15T20:15:21.748Z,16.24
2018-09-15T20:17:50.995Z,16.26
2018-09-15T20:20:19.316Z,16.24
2018-09-15T20:22:48.995Z,16.25
2018-09-15T20:25:18.227Z,16.24
2018-09-15T20:27:47.502Z,16.32
2018-09-15T20:30:17.228Z,16.35
2018-09-15T20:32:47.408Z,16.40
2018-09-15T20:35:18.229Z,16.45
2018-09-15T20:37:47.500Z,16.37
2018-09-15T20:40:17.501Z,16.31
2018-09-15T20:42:46.756Z,16.26
2018-09-15T20:45:17.263Z,16.21
2018-09-15T20:47:46.512Z,16.14
2018-09-15T20:50:18.132Z,16.10
2018-09-15T20:52:47.361Z,16.07
2018-09-15T20:55:18.199Z,16.05
2018-09-15T20:57:47.455Z,16.11
2018-09-15T21:00:17.801Z,16.09
2018-09-15T21:02:47.064Z,16.00
2018-09-15T21:05:18.057Z,15.92
2018-09-15T21:07:47.283Z,15.96
2018-09-15T21:10:17.615Z,15.99
2018-09-15T21:12:46.824Z,15.83
2018-09-15T21:15:16.859Z,15.75
2018-09-15T21:17:46.075Z,15.70
2018-09-15T21:20:16.779Z,15.72
2018-09-15T21:22:45.994Z,15.68
2018-09-15T21:25:15.931Z,15.67
2018-09-15T21:27:45.128Z,15.61
2018-09-15T21:30:15.872Z,15.57
2018-09-15T21:32:45.083Z,15.53
2018-09-15T21:35:15.636Z,15.57
2018-09-15T21:37:44.889Z,15.47
2018-09-15T21:40:15.899Z,15.46
2018-09-15T21:42:45.140Z,15.39
2018-09-15T21:45:15.437Z,15.40
2018-09-15T21:47:44.652Z,15.33
2018-09-15T21:50:14.991Z,15.28
2018-09-15T21:52:44.224Z,15.37
2018-09-15T21:55:15.423Z,15.38
2018-09-15T21:57:44.624Z,15.39
2018-09-15T22:00:15.676Z,15.37
2018-09-15T22:02:44.933Z,15.40
2018-09-15T22:05:16.309Z,15.35
2018-09-15T22:07:45.539Z,15.31
2018-09-15T22:10:16.675Z,15.32
2018-09-15T22:12:45.895Z,15.38
2018-09-15T22:15:24.972Z,15.20
2018-09-15T22:17:55.157Z,15.16
2018-09-15T22:20:24.487Z,15.23
2018-09-15T22:22:53.726Z,15.14
2018-09-15T22:25:22.972Z,15.04
2018-09-15T22:27:52.200Z,15.01
2018-09-15T22:30:21.462Z,14.94
2018-09-15T22:32:50.663Z,14.89
2018-09-15T22:35:19.928Z,14.90
2018-09-15T22:37:49.158Z,14.86
2018-09-15T22:40:18.600Z,14.82
2018-09-15T22:42:47.846Z,14.70
2018-09-15T22:45:18.724Z,14.56
2018-09-15T22:47:48.827Z,14.60
2018-09-15T22:50:18.358Z,14.49
2018-09-15T22:52:47.567Z,14.40
2018-09-15T22:55:19.161Z,14.42
2018-09-15T22:57:48.468Z,14.48
2018-09-15T23:00:18.303Z,14.43
2018-09-15T23:02:47.504Z,14.33
2018-09-15T23:05:17.700Z,14.37
2018-09-15T23:07:46.921Z,14.34
2018-09-15T23:10:18.036Z,14.36
2018-09-15T23:12:47.267Z,14.32
2018-09-15T23:15:16.842Z,14.13
2018-09-15T23:17:46.186Z,14.13
2018-09-15T23:20:16.440Z,14.03
2018-09-15T23:22:45.626Z,13.91
2018-09-15T23:25:15.718Z,13.95
2018-09-15T23:27:44.964Z,13.97
2018-09-15T23:30:15.082Z,13.99
2018-09-15T23:32:44.332Z,13.93
2018-09-15T23:35:15.061Z,13.89
2018-09-15T23:37:44.268Z,13.89
2018-09-15T23:40:14.714Z,13.84
2018-09-15T23:43:09.924Z,13.75
2018-09-15T23:45:39.299Z,13.60
2018-09-15T23:48:08.531Z,13.61
2018-09-15T23:50:37.760Z,13.57
2018-09-15T23:53:06.994Z,13.62
2018-09-15T23:55:36.221Z,13.59
2018-09-15T23:58:05.728Z,13.59
